sensor_id;sensor_type;location;lat;lon;timestamp;P1;durP1;ratioP1;P2;durP2;ratioP2
15716;SDS011;7960;50.908;4.204;2023-05-14T00:02:02;54.47;;;36.13;;
15716;SDS011;7960;50.908;4.204;2023-05-14T00:04:29;56.67;;;35.50;;
15716;SDS011;7960;50.908;4.204;2023-05-14T00:06:56;53.10;;;36.07;;
15716;SDS011;7960;50.908;4.204;2023-05-14T00:09:25;52.93;;;35.80;;
15716;SDS011;7960;50.908;4.204;2023-05-14T00:11:52;58.23;;;36.97;;
15716;SDS011;7960;50.908;4.204;2023-05-14T00:14:19;52.03;;;36.07;;
15716;SDS011;7960;50.908;4.204;2023-05-14T00:16:47;52.90;;;34.93;;
15716;SDS011;7960;50.908;4.204;2023-05-14T00:19:14;61.03;;;35.93;;
15716;SDS011;7960;50.908;4.204;2023-05-14T00:21:41;61.00;;;37.83;;
15716;SDS011;7960;50.908;4.204;2023-05-14T00:24:08;60.90;;;37.50;;
15716;SDS011;7960;50.908;4.204;2023-05-14T00:26:37;57.00;;;37.17;;
15716;SDS011;7960;50.908;4.204;2023-05-14T00:29:03;62.60;;;37.97;;
15716;SDS011;7960;50.908;4.204;2023-05-14T00:31:30;60.57;;;36.97;;
15716;SDS011;7960;50.908;4.204;2023-05-14T00:33:57;56.27;;;36.00;;
15716;SDS011;7960;50.908;4.204;2023-05-14T00:36:24;64.67;;;37.90;;
15716;SDS011;7960;50.908;4.204;2023-05-14T00:38:51;57.70;;;38.70;;
15716;SDS011;7960;50.908;4.204;2023-05-14T00:41:18;63.57;;;37.03;;
15716;SDS011;7960;50.908;4.204;2023-05-14T00:43:47;59.70;;;37.93;;
15716;SDS011;7960;50.908;4.204;2023-05-14T00:46:14;54.97;;;35.63;;
15716;SDS011;7960;50.908;4.204;2023-05-14T00:48:41;54.73;;;36.10;;
15716;SDS011;7960;50.908;4.204;2023-05-14T00:51:09;68.10;;;40.00;;
15716;SDS011;7960;50.908;4.204;2023-05-14T00:53:36;63.07;;;38.80;;
15716;SDS011;7960;50.908;4.204;2023-05-14T00:56:03;61.70;;;38.47;;
15716;SDS011;7960;50.908;4.204;2023-05-14T00:58:31;64.53;;;38.97;;
15716;SDS011;7960;50.908;4.204;2023-05-14T01:00:59;67.57;;;40.17;;
15716;SDS011;7960;50.908;4.204;2023-05-14T01:03:26;66.80;;;40.53;;
15716;SDS011;7960;50.908;4.204;2023-05-14T01:05:55;65.47;;;41.23;;
15716;SDS011;7960;50.908;4.204;2023-05-14T01:08:31;59.40;;;39.33;;
15716;SDS011;7960;50.908;4.204;2023-05-14T01:11:06;65.40;;;40.73;;
15716;SDS011;7960;50.908;4.204;2023-05-14T01:13:41;61.30;;;40.60;;
15716;SDS011;7960;50.908;4.204;2023-05-14T01:16:14;65.97;;;41.33;;
15716;SDS011;7960;50.908;4.204;2023-05-14T01:18:44;59.07;;;38.77;;
15716;SDS011;7960;50.908;4.204;2023-05-14T01:21:27;62.67;;;38.27;;
15716;SDS011;7960;50.908;4.204;2023-05-14T01:24:02;57.33;;;37.27;;
15716;SDS011;7960;50.908;4.204;2023-05-14T01:26:29;66.23;;;39.63;;
15716;SDS011;7960;50.908;4.204;2023-05-14T01:28:57;69.30;;;39.23;;
15716;SDS011;7960;50.908;4.204;2023-05-14T01:31:27;64.00;;;39.47;;
15716;SDS011;7960;50.908;4.204;2023-05-14T01:33:56;67.03;;;39.00;;
15716;SDS011;7960;50.908;4.204;2023-05-14T01:36:26;57.77;;;37.60;;
15716;SDS011;7960;50.908;4.204;2023-05-14T01:38:55;62.80;;;37.73;;
15716;SDS011;7960;50.908;4.204;2023-05-14T01:41:23;58.80;;;37.63;;
15716;SDS011;7960;50.908;4.204;2023-05-14T01:43:51;63.00;;;39.57;;
15716;SDS011;7960;50.908;4.204;2023-05-14T01:46:18;60.87;;;37.80;;
15716;SDS011;7960;50.908;4.204;2023-05-14T01:48:45;61.33;;;37.00;;
15716;SDS011;7960;50.908;4.204;2023-05-14T01:51:12;58.10;;;39.27;;
15716;SDS011;7960;50.908;4.204;2023-05-14T01:53:41;59.60;;;37.63;;
15716;SDS011;7960;50.908;4.204;2023-05-14T01:56:07;59.80;;;36.57;;
15716;SDS011;7960;50.908;4.204;2023-05-14T01:58:34;60.57;;;36.63;;
15716;SDS011;7960;50.908;4.204;2023-05-14T02:01:01;54.63;;;37.37;;
15716;SDS011;7960;50.908;4.204;2023-05-14T02:03:28;62.90;;;38.47;;
15716;SDS011;7960;50.908;4.204;2023-05-14T02:05:55;62.63;;;36.87;;
15716;SDS011;7960;50.908;4.204;2023-05-14T02:08:22;58.80;;;37.13;;
15716;SDS011;7960;50.908;4.204;2023-05-14T02:10:50;59.40;;;37.57;;
15716;SDS011;7960;50.908;4.204;2023-05-14T02:13:17;57.10;;;36.33;;
15716;SDS011;7960;50.908;4.204;2023-05-14T02:15:44;70.40;;;39.50;;
15716;SDS011;7960;50.908;4.204;2023-05-14T02:18:11;65.73;;;39.30;;
15716;SDS011;7960;50.908;4.204;2023-05-14T02:20:38;66.00;;;39.43;;
15716;SDS011;7960;50.908;4.204;2023-05-14T02:23:05;67.90;;;40.20;;
15716;SDS011;7960;50.908;4.204;2023-05-14T02:25:32;62.33;;;38.27;;
15716;SDS011;7960;50.908;4.204;2023-05-14T02:28:01;72.50;;;37.97;;
15716;SDS011;7960;50.908;4.204;2023-05-14T02:30:27;58.03;;;36.20;;
15716;SDS011;7960;50.908;4.204;2023-05-14T02:32:55;61.50;;;36.67;;
15716;SDS011;7960;50.908;4.204;2023-05-14T02:35:22;63.60;;;37.50;;
15716;SDS011;7960;50.908;4.204;2023-05-14T02:37:49;64.70;;;37.83;;
15716;SDS011;7960;50.908;4.204;2023-05-14T02:40:16;62.13;;;38.50;;
15716;SDS011;7960;50.908;4.204;2023-05-14T02:42:43;66.60;;;38.60;;
15716;SDS011;7960;50.908;4.204;2023-05-14T02:45:11;74.63;;;38.47;;
15716;SDS011;7960;50.908;4.204;2023-05-14T02:47:38;61.43;;;37.40;;
15716;SDS011;7960;50.908;4.204;2023-05-14T02:50:06;63.07;;;38.40;;
15716;SDS011;7960;50.908;4.204;2023-05-14T02:52:35;59.40;;;37.13;;
15716;SDS011;7960;50.908;4.204;2023-05-14T02:55:02;63.00;;;38.07;;
15716;SDS011;7960;50.908;4.204;2023-05-14T02:57:29;59.83;;;37.17;;
15716;SDS011;7960;50.908;4.204;2023-05-14T02:59:56;58.57;;;37.17;;
15716;SDS011;7960;50.908;4.204;2023-05-14T03:02:24;60.87;;;38.17;;
15716;SDS011;7960;50.908;4.204;2023-05-14T03:04:51;60.00;;;37.03;;
15716;SDS011;7960;50.908;4.204;2023-05-14T03:07:18;53.77;;;36.70;;
15716;SDS011;7960;50.908;4.204;2023-05-14T03:09:45;64.27;;;38.63;;
15716;SDS011;7960;50.908;4.204;2023-05-14T03:12:12;60.47;;;37.43;;
15716;SDS011;7960;50.908;4.204;2023-05-14T03:14:39;58.40;;;38.07;;
15716;SDS011;7960;50.908;4.204;2023-05-14T03:17:06;58.87;;;38.13;;
15716;SDS011;7960;50.908;4.204;2023-05-14T03:19:35;58.10;;;36.90;;
15716;SDS011;7960;50.908;4.204;2023-05-14T03:22:02;60.10;;;38.00;;
15716;SDS011;7960;50.908;4.204;2023-05-14T03:24:29;58.90;;;37.50;;
15716;SDS011;7960;50.908;4.204;2023-05-14T03:26:56;60.37;;;37.37;;
15716;SDS011;7960;50.908;4.204;2023-05-14T03:29:23;62.47;;;38.30;;
15716;SDS011;7960;50.908;4.204;2023-05-14T03:31:50;63.57;;;37.47;;
15716;SDS011;7960;50.908;4.204;2023-05-14T03:34:18;61.30;;;38.67;;
15716;SDS011;7960;50.908;4.204;2023-05-14T03:36:46;58.53;;;36.63;;
15716;SDS011;7960;50.908;4.204;2023-05-14T03:39:13;58.17;;;37.20;;
15716;SDS011;7960;50.908;4.204;2023-05-14T03:41:43;61.80;;;37.57;;
15716;SDS011;7960;50.908;4.204;2023-05-14T03:44:10;56.17;;;37.73;;
15716;SDS011;7960;50.908;4.204;2023-05-14T03:46:37;59.20;;;36.67;;
15716;SDS011;7960;50.908;4.204;2023-05-14T03:49:04;58.63;;;37.77;;
15716;SDS011;7960;50.908;4.204;2023-05-14T03:51:32;62.07;;;39.60;;
15716;SDS011;7960;50.908;4.204;2023-05-14T03:54:03;65.83;;;39.30;;
15716;SDS011;7960;50.908;4.204;2023-05-14T03:56:30;64.27;;;38.87;;
15716;SDS011;7960;50.908;4.204;2023-05-14T03:58:57;57.53;;;38.33;;
15716;SDS011;7960;50.908;4.204;2023-05-14T04:01:23;66.63;;;39.90;;
15716;SDS011;7960;50.908;4.204;2023-05-14T04:03:50;64.07;;;38.37;;
15716;SDS011;7960;50.908;4.204;2023-05-14T04:06:17;68.13;;;38.17;;
15716;SDS011;7960;50.908;4.204;2023-05-14T04:08:44;65.20;;;38.87;;
15716;SDS011;7960;50.908;4.204;2023-05-14T04:11:13;60.37;;;37.80;;
15716;SDS011;7960;50.908;4.204;2023-05-14T04:13:40;58.53;;;38.20;;
15716;SDS011;7960;50.908;4.204;2023-05-14T04:16:06;61.20;;;38.23;;
15716;SDS011;7960;50.908;4.204;2023-05-14T04:18:33;63.87;;;39.27;;
15716;SDS011;7960;50.908;4.204;2023-05-14T04:21:00;66.50;;;39.43;;
15716;SDS011;7960;50.908;4.204;2023-05-14T04:23:27;59.30;;;36.87;;
15716;SDS011;7960;50.908;4.204;2023-05-14T04:25:55;72.80;;;38.37;;
15716;SDS011;7960;50.908;4.204;2023-05-14T04:28:24;61.60;;;38.53;;
15716;SDS011;7960;50.908;4.204;2023-05-14T04:30:51;60.57;;;37.57;;
15716;SDS011;7960;50.908;4.204;2023-05-14T04:33:18;64.67;;;38.17;;
15716;SDS011;7960;50.908;4.204;2023-05-14T04:35:45;67.67;;;39.13;;
15716;SDS011;7960;50.908;4.204;2023-05-14T04:38:12;56.93;;;37.40;;
15716;SDS011;7960;50.908;4.204;2023-05-14T04:40:39;67.47;;;37.57;;
15716;SDS011;7960;50.908;4.204;2023-05-14T04:43:06;68.70;;;38.77;;
15716;SDS011;7960;50.908;4.204;2023-05-14T04:45:36;59.87;;;36.60;;
15716;SDS011;7960;50.908;4.204;2023-05-14T04:48:02;56.00;;;38.03;;
15716;SDS011;7960;50.908;4.204;2023-05-14T04:50:31;64.30;;;37.23;;
15716;SDS011;7960;50.908;4.204;2023-05-14T04:52:58;59.13;;;37.43;;
15716;SDS011;7960;50.908;4.204;2023-05-14T04:55:25;58.17;;;37.47;;
15716;SDS011;7960;50.908;4.204;2023-05-14T04:57:52;62.30;;;36.93;;
15716;SDS011;7960;50.908;4.204;2023-05-14T05:00:19;60.63;;;36.90;;
15716;SDS011;7960;50.908;4.204;2023-05-14T05:02:48;62.20;;;37.40;;
15716;SDS011;7960;50.908;4.204;2023-05-14T05:05:15;56.90;;;37.20;;
15716;SDS011;7960;50.908;4.204;2023-05-14T05:07:42;63.70;;;39.10;;
15716;SDS011;7960;50.908;4.204;2023-05-14T05:10:09;59.17;;;35.73;;
15716;SDS011;7960;50.908;4.204;2023-05-14T05:12:36;66.20;;;37.80;;
15716;SDS011;7960;50.908;4.204;2023-05-14T05:15:04;65.00;;;37.13;;
15716;SDS011;7960;50.908;4.204;2023-05-14T05:17:31;59.23;;;38.33;;
15716;SDS011;7960;50.908;4.204;2023-05-14T05:20:00;57.10;;;37.80;;
15716;SDS011;7960;50.908;4.204;2023-05-14T05:22:26;60.53;;;38.07;;
15716;SDS011;7960;50.908;4.204;2023-05-14T05:24:54;63.30;;;37.17;;
15716;SDS011;7960;50.908;4.204;2023-05-14T05:27:21;56.87;;;35.53;;
15716;SDS011;7960;50.908;4.204;2023-05-14T05:29:47;58.13;;;34.53;;
15716;SDS011;7960;50.908;4.204;2023-05-14T05:32:14;70.00;;;38.97;;
15716;SDS011;7960;50.908;4.204;2023-05-14T05:34:41;62.93;;;37.37;;
15716;SDS011;7960;50.908;4.204;2023-05-14T05:37:10;62.97;;;36.50;;
15716;SDS011;7960;50.908;4.204;2023-05-14T05:39:38;62.77;;;37.33;;
15716;SDS011;7960;50.908;4.204;2023-05-14T05:42:06;66.73;;;37.67;;
15716;SDS011;7960;50.908;4.204;2023-05-14T05:44:34;65.83;;;38.87;;
15716;SDS011;7960;50.908;4.204;2023-05-14T05:47:01;65.90;;;37.73;;
15716;SDS011;7960;50.908;4.204;2023-05-14T05:49:28;67.87;;;40.33;;
15716;SDS011;7960;50.908;4.204;2023-05-14T05:51:58;65.13;;;39.57;;
15716;SDS011;7960;50.908;4.204;2023-05-14T05:54:42;69.60;;;38.50;;
15716;SDS011;7960;50.908;4.204;2023-05-14T05:57:11;63.63;;;37.50;;
15716;SDS011;7960;50.908;4.204;2023-05-14T05:59:38;68.77;;;39.03;;
15716;SDS011;7960;50.908;4.204;2023-05-14T06:02:05;71.17;;;39.40;;
15716;SDS011;7960;50.908;4.204;2023-05-14T06:04:32;66.67;;;37.83;;
15716;SDS011;7960;50.908;4.204;2023-05-14T06:06:59;72.07;;;38.03;;
15716;SDS011;7960;50.908;4.204;2023-05-14T06:09:25;63.63;;;38.83;;
15716;SDS011;7960;50.908;4.204;2023-05-14T06:11:54;65.53;;;38.43;;
15716;SDS011;7960;50.908;4.204;2023-05-14T06:14:20;72.77;;;40.17;;
15716;SDS011;7960;50.908;4.204;2023-05-14T06:16:47;70.60;;;38.83;;
15716;SDS011;7960;50.908;4.204;2023-05-14T06:19:14;68.73;;;38.20;;
15716;SDS011;7960;50.908;4.204;2023-05-14T06:21:42;62.17;;;38.40;;
15716;SDS011;7960;50.908;4.204;2023-05-14T06:24:09;66.03;;;38.37;;
15716;SDS011;7960;50.908;4.204;2023-05-14T06:26:37;63.33;;;37.07;;
15716;SDS011;7960;50.908;4.204;2023-05-14T06:29:05;64.97;;;36.57;;
15716;SDS011;7960;50.908;4.204;2023-05-14T06:31:32;55.50;;;34.20;;
15716;SDS011;7960;50.908;4.204;2023-05-14T06:33:59;55.00;;;34.03;;
15716;SDS011;7960;50.908;4.204;2023-05-14T06:36:26;57.80;;;34.20;;
15716;SDS011;7960;50.908;4.204;2023-05-14T06:38:53;55.87;;;32.03;;
15716;SDS011;7960;50.908;4.204;2023-05-14T06:41:20;57.53;;;34.33;;
15716;SDS011;7960;50.908;4.204;2023-05-14T06:43:47;54.87;;;31.83;;
15716;SDS011;7960;50.908;4.204;2023-05-14T06:46:15;55.90;;;33.83;;
15716;SDS011;7960;50.908;4.204;2023-05-14T06:48:42;56.67;;;33.73;;
15716;SDS011;7960;50.908;4.204;2023-05-14T06:51:08;55.53;;;33.73;;
15716;SDS011;7960;50.908;4.204;2023-05-14T06:53:37;54.23;;;32.63;;
15716;SDS011;7960;50.908;4.204;2023-05-14T06:56:04;52.97;;;31.90;;
15716;SDS011;7960;50.908;4.204;2023-05-14T06:58:31;56.53;;;34.33;;
15716;SDS011;7960;50.908;4.204;2023-05-14T07:00:58;53.17;;;33.53;;
15716;SDS011;7960;50.908;4.204;2023-05-14T07:03:27;64.43;;;34.57;;
15716;SDS011;7960;50.908;4.204;2023-05-14T07:05:54;52.20;;;32.87;;
15716;SDS011;7960;50.908;4.204;2023-05-14T07:08:21;56.87;;;34.43;;
15716;SDS011;7960;50.908;4.204;2023-05-14T07:10:48;51.23;;;33.37;;
15716;SDS011;7960;50.908;4.204;2023-05-14T07:13:14;53.97;;;33.53;;
15716;SDS011;7960;50.908;4.204;2023-05-14T07:15:41;50.40;;;32.87;;
15716;SDS011;7960;50.908;4.204;2023-05-14T07:18:08;51.13;;;33.70;;
15716;SDS011;7960;50.908;4.204;2023-05-14T07:20:36;55.60;;;33.60;;
15716;SDS011;7960;50.908;4.204;2023-05-14T07:23:03;52.30;;;32.93;;
15716;SDS011;7960;50.908;4.204;2023-05-14T07:25:31;44.27;;;30.90;;
15716;SDS011;7960;50.908;4.204;2023-05-14T07:27:58;48.67;;;30.83;;
15716;SDS011;7960;50.908;4.204;2023-05-14T07:30:24;49.77;;;30.37;;
15716;SDS011;7960;50.908;4.204;2023-05-14T07:32:51;44.17;;;29.93;;
15716;SDS011;7960;50.908;4.204;2023-05-14T07:35:18;48.53;;;31.30;;
15716;SDS011;7960;50.908;4.204;2023-05-14T07:37:47;44.43;;;29.70;;
15716;SDS011;7960;50.908;4.204;2023-05-14T07:40:14;42.50;;;29.40;;
15716;SDS011;7960;50.908;4.204;2023-05-14T07:42:41;44.00;;;30.10;;
15716;SDS011;7960;50.908;4.204;2023-05-14T07:45:08;45.57;;;28.03;;
15716;SDS011;7960;50.908;4.204;2023-05-14T07:47:35;45.27;;;29.50;;
15716;SDS011;7960;50.908;4.204;2023-05-14T07:50:09;45.97;;;31.07;;
15716;SDS011;7960;50.908;4.204;2023-05-14T07:52:39;43.10;;;28.93;;
15716;SDS011;7960;50.908;4.204;2023-05-14T07:55:08;43.17;;;29.07;;
15716;SDS011;7960;50.908;4.204;2023-05-14T07:57:35;41.93;;;29.70;;
15716;SDS011;7960;50.908;4.204;2023-05-14T08:00:05;44.87;;;29.77;;
15716;SDS011;7960;50.908;4.204;2023-05-14T08:02:33;43.77;;;29.37;;
15716;SDS011;7960;50.908;4.204;2023-05-14T08:05:00;43.60;;;29.63;;
15716;SDS011;7960;50.908;4.204;2023-05-14T08:07:28;47.03;;;31.20;;
15716;SDS011;7960;50.908;4.204;2023-05-14T08:09:55;44.67;;;31.40;;
15716;SDS011;7960;50.908;4.204;2023-05-14T08:12:23;45.40;;;30.80;;
15716;SDS011;7960;50.908;4.204;2023-05-14T08:14:50;46.87;;;29.90;;
15716;SDS011;7960;50.908;4.204;2023-05-14T08:17:17;44.23;;;29.87;;
15716;SDS011;7960;50.908;4.204;2023-05-14T08:19:47;44.70;;;30.27;;
15716;SDS011;7960;50.908;4.204;2023-05-14T08:22:16;44.73;;;29.40;;
15716;SDS011;7960;50.908;4.204;2023-05-14T08:24:43;40.40;;;29.17;;
15716;SDS011;7960;50.908;4.204;2023-05-14T08:27:10;41.63;;;30.00;;
15716;SDS011;7960;50.908;4.204;2023-05-14T08:29:38;41.40;;;29.63;;
15716;SDS011;7960;50.908;4.204;2023-05-14T08:32:05;42.97;;;31.07;;
15716;SDS011;7960;50.908;4.204;2023-05-14T08:34:34;39.80;;;28.93;;
15716;SDS011;7960;50.908;4.204;2023-05-14T08:37:01;36.87;;;28.13;;
15716;SDS011;7960;50.908;4.204;2023-05-14T08:39:28;41.00;;;28.77;;
15716;SDS011;7960;50.908;4.204;2023-05-14T08:41:55;43.13;;;29.97;;
15716;SDS011;7960;50.908;4.204;2023-05-14T08:44:25;43.50;;;29.90;;
15716;SDS011;7960;50.908;4.204;2023-05-14T08:47:01;41.13;;;29.33;;
15716;SDS011;7960;50.908;4.204;2023-05-14T08:49:31;43.13;;;28.30;;
15716;SDS011;7960;50.908;4.204;2023-05-14T08:52:05;41.87;;;27.97;;
15716;SDS011;7960;50.908;4.204;2023-05-14T08:54:33;42.20;;;28.67;;
15716;SDS011;7960;50.908;4.204;2023-05-14T08:57:01;36.53;;;27.67;;
15716;SDS011;7960;50.908;4.204;2023-05-14T08:59:28;37.13;;;27.13;;
15716;SDS011;7960;50.908;4.204;2023-05-14T09:01:57;40.43;;;28.90;;
15716;SDS011;7960;50.908;4.204;2023-05-14T09:04:28;38.20;;;28.50;;
15716;SDS011;7960;50.908;4.204;2023-05-14T09:06:56;39.50;;;28.60;;
15716;SDS011;7960;50.908;4.204;2023-05-14T09:09:25;38.60;;;28.87;;
15716;SDS011;7960;50.908;4.204;2023-05-14T09:11:53;36.67;;;28.40;;
15716;SDS011;7960;50.908;4.204;2023-05-14T09:14:21;38.90;;;28.63;;
15716;SDS011;7960;50.908;4.204;2023-05-14T09:16:49;36.50;;;27.70;;
15716;SDS011;7960;50.908;4.204;2023-05-14T09:19:17;35.43;;;27.63;;
15716;SDS011;7960;50.908;4.204;2023-05-14T09:21:45;41.33;;;30.10;;
15716;SDS011;7960;50.908;4.204;2023-05-14T09:24:17;37.83;;;28.70;;
15716;SDS011;7960;50.908;4.204;2023-05-14T09:26:48;38.57;;;29.37;;
15716;SDS011;7960;50.908;4.204;2023-05-14T09:29:15;40.27;;;28.60;;
15716;SDS011;7960;50.908;4.204;2023-05-14T09:31:43;38.27;;;29.63;;
15716;SDS011;7960;50.908;4.204;2023-05-14T09:34:10;39.43;;;28.63;;
15716;SDS011;7960;50.908;4.204;2023-05-14T09:36:37;36.73;;;27.83;;
15716;SDS011;7960;50.908;4.204;2023-05-14T09:39:05;34.77;;;27.73;;
15716;SDS011;7960;50.908;4.204;2023-05-14T09:41:33;40.70;;;31.53;;
15716;SDS011;7960;50.908;4.204;2023-05-14T09:44:01;36.53;;;27.37;;
15716;SDS011;7960;50.908;4.204;2023-05-14T09:46:28;36.77;;;27.77;;
15716;SDS011;7960;50.908;4.204;2023-05-14T09:48:56;36.90;;;28.00;;
15716;SDS011;7960;50.908;4.204;2023-05-14T09:51:23;38.47;;;27.93;;
15716;SDS011;7960;50.908;4.204;2023-05-14T09:53:50;34.27;;;26.63;;
15716;SDS011;7960;50.908;4.204;2023-05-14T09:56:19;36.93;;;28.40;;
15716;SDS011;7960;50.908;4.204;2023-05-14T09:58:46;31.40;;;25.97;;
15716;SDS011;7960;50.908;4.204;2023-05-14T10:01:13;31.50;;;26.17;;
15716;SDS011;7960;50.908;4.204;2023-05-14T10:03:43;32.10;;;26.67;;
15716;SDS011;7960;50.908;4.204;2023-05-14T10:06:11;34.73;;;26.63;;
15716;SDS011;7960;50.908;4.204;2023-05-14T10:08:40;35.40;;;26.27;;
15716;SDS011;7960;50.908;4.204;2023-05-14T10:11:11;39.43;;;26.07;;
15716;SDS011;7960;50.908;4.204;2023-05-14T10:13:44;33.70;;;26.03;;
15716;SDS011;7960;50.908;4.204;2023-05-14T10:16:18;39.03;;;25.37;;
15716;SDS011;7960;50.908;4.204;2023-05-14T10:18:53;30.57;;;24.67;;
15716;SDS011;7960;50.908;4.204;2023-05-14T10:21:25;33.27;;;26.27;;
15716;SDS011;7960;50.908;4.204;2023-05-14T10:23:55;31.13;;;24.50;;
15716;SDS011;7960;50.908;4.204;2023-05-14T10:26:23;34.53;;;26.43;;
15716;SDS011;7960;50.908;4.204;2023-05-14T10:28:51;32.83;;;26.27;;
15716;SDS011;7960;50.908;4.204;2023-05-14T10:31:21;29.77;;;24.30;;
15716;SDS011;7960;50.908;4.204;2023-05-14T10:33:49;28.70;;;23.77;;
15716;SDS011;7960;50.908;4.204;2023-05-14T10:36:16;26.33;;;23.30;;
15716;SDS011;7960;50.908;4.204;2023-05-14T10:38:43;32.93;;;25.33;;
15716;SDS011;7960;50.908;4.204;2023-05-14T10:41:11;33.67;;;23.50;;
15716;SDS011;7960;50.908;4.204;2023-05-14T10:43:40;31.53;;;23.67;;
15716;SDS011;7960;50.908;4.204;2023-05-14T10:46:09;29.23;;;22.77;;
15716;SDS011;7960;50.908;4.204;2023-05-14T10:48:38;28.50;;;23.20;;
15716;SDS011;7960;50.908;4.204;2023-05-14T10:51:07;32.13;;;23.33;;
15716;SDS011;7960;50.908;4.204;2023-05-14T10:53:36;28.23;;;22.30;;
15716;SDS011;7960;50.908;4.204;2023-05-14T10:56:07;27.80;;;21.47;;
15716;SDS011;7960;50.908;4.204;2023-05-14T10:58:36;27.80;;;21.37;;
15716;SDS011;7960;50.908;4.204;2023-05-14T11:01:04;25.83;;;20.43;;
15716;SDS011;7960;50.908;4.204;2023-05-14T11:03:37;25.93;;;21.17;;
15716;SDS011;7960;50.908;4.204;2023-05-14T11:06:06;28.30;;;21.53;;
15716;SDS011;7960;50.908;4.204;2023-05-14T11:08:33;30.67;;;22.50;;
15716;SDS011;7960;50.908;4.204;2023-05-14T11:11:00;25.70;;;22.40;;
15716;SDS011;7960;50.908;4.204;2023-05-14T11:13:27;28.50;;;21.80;;
15716;SDS011;7960;50.908;4.204;2023-05-14T11:15:55;29.10;;;22.93;;
15716;SDS011;7960;50.908;4.204;2023-05-14T11:18:25;27.03;;;22.27;;
15716;SDS011;7960;50.908;4.204;2023-05-14T11:20:56;32.23;;;22.57;;
15716;SDS011;7960;50.908;4.204;2023-05-14T11:23:24;25.53;;;22.47;;
15716;SDS011;7960;50.908;4.204;2023-05-14T11:25:51;24.30;;;21.77;;
15716;SDS011;7960;50.908;4.204;2023-05-14T11:28:19;26.77;;;21.70;;
15716;SDS011;7960;50.908;4.204;2023-05-14T11:30:47;26.07;;;21.07;;
15716;SDS011;7960;50.908;4.204;2023-05-14T11:33:14;29.33;;;22.57;;
15716;SDS011;7960;50.908;4.204;2023-05-14T11:35:41;30.07;;;22.23;;
15716;SDS011;7960;50.908;4.204;2023-05-14T11:38:13;26.30;;;21.83;;
15716;SDS011;7960;50.908;4.204;2023-05-14T11:40:41;26.53;;;20.03;;
15716;SDS011;7960;50.908;4.204;2023-05-14T11:43:09;24.83;;;19.83;;
15716;SDS011;7960;50.908;4.204;2023-05-14T11:45:36;26.60;;;20.70;;
15716;SDS011;7960;50.908;4.204;2023-05-14T11:48:10;23.57;;;20.80;;
15716;SDS011;7960;50.908;4.204;2023-05-14T11:50:42;25.37;;;20.63;;
15716;SDS011;7960;50.908;4.204;2023-05-14T11:53:10;25.97;;;21.37;;
15716;SDS011;7960;50.908;4.204;2023-05-14T11:55:44;24.47;;;19.60;;
15716;SDS011;7960;50.908;4.204;2023-05-14T11:58:13;26.73;;;19.97;;
15716;SDS011;7960;50.908;4.204;2023-05-14T12:00:42;27.23;;;21.67;;
15716;SDS011;7960;50.908;4.204;2023-05-14T12:03:10;23.33;;;20.23;;
15716;SDS011;7960;50.908;4.204;2023-05-14T12:05:37;25.33;;;20.77;;
15716;SDS011;7960;50.908;4.204;2023-05-14T12:08:19;25.43;;;21.97;;
15716;SDS011;7960;50.908;4.204;2023-05-14T12:10:46;24.30;;;20.53;;
15716;SDS011;7960;50.908;4.204;2023-05-14T12:13:14;25.53;;;20.60;;
15716;SDS011;7960;50.908;4.204;2023-05-14T12:15:43;24.63;;;20.13;;
15716;SDS011;7960;50.908;4.204;2023-05-14T12:18:11;22.13;;;19.70;;
15716;SDS011;7960;50.908;4.204;2023-05-14T12:20:38;26.73;;;22.60;;
15716;SDS011;7960;50.908;4.204;2023-05-14T12:23:11;25.90;;;20.83;;
15716;SDS011;7960;50.908;4.204;2023-05-14T12:25:39;24.70;;;20.07;;
15716;SDS011;7960;50.908;4.204;2023-05-14T12:28:14;23.50;;;20.37;;
15716;SDS011;7960;50.908;4.204;2023-05-14T12:30:41;28.40;;;25.43;;
15716;SDS011;7960;50.908;4.204;2023-05-14T12:33:08;24.70;;;20.10;;
15716;SDS011;7960;50.908;4.204;2023-05-14T12:35:35;23.57;;;19.70;;
15716;SDS011;7960;50.908;4.204;2023-05-14T12:38:02;23.33;;;19.47;;
15716;SDS011;7960;50.908;4.204;2023-05-14T12:40:30;23.63;;;19.83;;
15716;SDS011;7960;50.908;4.204;2023-05-14T12:42:58;21.33;;;18.53;;
15716;SDS011;7960;50.908;4.204;2023-05-14T12:45:25;23.30;;;18.23;;
15716;SDS011;7960;50.908;4.204;2023-05-14T12:47:52;23.03;;;19.30;;
15716;SDS011;7960;50.908;4.204;2023-05-14T12:50:19;21.57;;;18.20;;
15716;SDS011;7960;50.908;4.204;2023-05-14T12:52:45;21.67;;;19.30;;
15716;SDS011;7960;50.908;4.204;2023-05-14T12:55:12;23.27;;;19.07;;
15716;SDS011;7960;50.908;4.204;2023-05-14T12:57:40;26.73;;;21.00;;
15716;SDS011;7960;50.908;4.204;2023-05-14T13:00:09;23.57;;;19.27;;
15716;SDS011;7960;50.908;4.204;2023-05-14T13:02:36;23.07;;;19.40;;
15716;SDS011;7960;50.908;4.204;2023-05-14T13:05:03;19.73;;;17.40;;
15716;SDS011;7960;50.908;4.204;2023-05-14T13:07:30;24.20;;;21.50;;
15716;SDS011;7960;50.908;4.204;2023-05-14T13:09:57;20.97;;;18.67;;
15716;SDS011;7960;50.908;4.204;2023-05-14T13:12:24;25.20;;;18.87;;
15716;SDS011;7960;50.908;4.204;2023-05-14T13:14:51;21.43;;;18.63;;
15716;SDS011;7960;50.908;4.204;2023-05-14T13:17:19;22.20;;;18.80;;
15716;SDS011;7960;50.908;4.204;2023-05-14T13:19:46;21.43;;;17.70;;
15716;SDS011;7960;50.908;4.204;2023-05-14T13:22:13;19.07;;;17.07;;
15716;SDS011;7960;50.908;4.204;2023-05-14T13:24:42;19.93;;;17.77;;
15716;SDS011;7960;50.908;4.204;2023-05-14T13:27:10;19.53;;;16.63;;
15716;SDS011;7960;50.908;4.204;2023-05-14T13:29:37;22.23;;;16.70;;
15716;SDS011;7960;50.908;4.204;2023-05-14T13:32:04;19.17;;;17.17;;
15716;SDS011;7960;50.908;4.204;2023-05-14T13:34:32;20.53;;;16.60;;
15716;SDS011;7960;50.908;4.204;2023-05-14T13:36:59;19.57;;;15.77;;
15716;SDS011;7960;50.908;4.204;2023-05-14T13:39:26;18.07;;;15.13;;
15716;SDS011;7960;50.908;4.204;2023-05-14T13:41:53;20.33;;;15.23;;
15716;SDS011;7960;50.908;4.204;2023-05-14T13:44:21;19.27;;;13.17;;
15716;SDS011;7960;50.908;4.204;2023-05-14T13:46:48;15.93;;;14.43;;
15716;SDS011;7960;50.908;4.204;2023-05-14T13:49:14;22.17;;;15.20;;
15716;SDS011;7960;50.908;4.204;2023-05-14T13:51:43;18.07;;;16.10;;
15716;SDS011;7960;50.908;4.204;2023-05-14T13:54:10;15.73;;;14.20;;
15716;SDS011;7960;50.908;4.204;2023-05-14T13:56:37;20.50;;;15.40;;
15716;SDS011;7960;50.908;4.204;2023-05-14T13:59:03;16.00;;;14.00;;
15716;SDS011;7960;50.908;4.204;2023-05-14T14:01:30;19.70;;;14.03;;
15716;SDS011;7960;50.908;4.204;2023-05-14T14:03:57;19.07;;;14.13;;
15716;SDS011;7960;50.908;4.204;2023-05-14T14:06:24;16.60;;;14.37;;
15716;SDS011;7960;50.908;4.204;2023-05-14T14:08:53;15.67;;;14.03;;
15716;SDS011;7960;50.908;4.204;2023-05-14T14:11:20;16.03;;;13.20;;
15716;SDS011;7960;50.908;4.204;2023-05-14T14:13:47;17.27;;;14.90;;
15716;SDS011;7960;50.908;4.204;2023-05-14T14:16:14;17.10;;;14.50;;
15716;SDS011;7960;50.908;4.204;2023-05-14T14:18:41;15.50;;;13.70;;
15716;SDS011;7960;50.908;4.204;2023-05-14T14:21:08;15.53;;;13.90;;
15716;SDS011;7960;50.908;4.204;2023-05-14T14:23:35;21.00;;;13.97;;
15716;SDS011;7960;50.908;4.204;2023-05-14T14:26:03;16.83;;;13.67;;
15716;SDS011;7960;50.908;4.204;2023-05-14T14:28:30;15.57;;;13.30;;
15716;SDS011;7960;50.908;4.204;2023-05-14T14:30:57;16.27;;;13.43;;
15716;SDS011;7960;50.908;4.204;2023-05-14T14:33:24;17.03;;;13.50;;
15716;SDS011;7960;50.908;4.204;2023-05-14T14:35:51;16.67;;;13.37;;
15716;SDS011;7960;50.908;4.204;2023-05-14T14:38:18;18.27;;;13.00;;